sensor_id;sensor_type;location;lat;lon;timestamp;P1;durP1;ratioP1;P2;durP2;ratioP2
71435;SDS011;59251;51.326;12.370;2024-02-21T00:00:23;16.63;;;2.80;;
71435;SDS011;59251;51.326;12.370;2024-02-21T00:02:51;9.07;;;1.80;;
71435;SDS011;59251;51.326;12.370;2024-02-21T00:05:18;12.70;;;2.92;;
71435;SDS011;59251;51.326;12.370;2024-02-21T00:07:45;12.77;;;2.08;;
71435;SDS011;59251;51.326;12.370;2024-02-21T00:10:11;9.98;;;1.88;;
71435;SDS011;59251;51.326;12.370;2024-02-21T00:12:38;14.03;;;2.40;;
71435;SDS011;59251;51.326;12.370;2024-02-21T00:15:05;9.52;;;2.30;;
71435;SDS011;59251;51.326;12.370;2024-02-21T00:17:33;10.63;;;2.25;;
71435;SDS011;59251;51.326;12.370;2024-02-21T00:20:01;11.35;;;2.13;;
71435;SDS011;59251;51.326;12.370;2024-02-21T00:22:28;13.95;;;2.58;;
71435;SDS011;59251;51.326;12.370;2024-02-21T00:24:56;14.50;;;2.70;;
71435;SDS011;59251;51.326;12.370;2024-02-21T00:27:24;10.52;;;1.90;;
71435;SDS011;59251;51.326;12.370;2024-02-21T00:29:51;15.85;;;3.25;;
71435;SDS011;59251;51.326;12.370;2024-02-21T00:32:17;12.82;;;2.80;;
71435;SDS011;59251;51.326;12.370;2024-02-21T00:34:44;12.38;;;2.95;;
71435;SDS011;59251;51.326;12.370;2024-02-21T00:37:12;12.33;;;2.63;;
71435;SDS011;59251;51.326;12.370;2024-02-21T00:39:39;12.57;;;2.40;;
71435;SDS011;59251;51.326;12.370;2024-02-21T00:42:07;16.38;;;2.75;;
71435;SDS011;59251;51.326;12.370;2024-02-21T00:44:34;16.20;;;2.25;;
71435;SDS011;59251;51.326;12.370;2024-02-21T00:47:01;12.38;;;2.47;;
71435;SDS011;59251;51.326;12.370;2024-02-21T00:49:27;11.53;;;2.43;;
71435;SDS011;59251;51.326;12.370;2024-02-21T00:51:54;12.40;;;2.28;;
71435;SDS011;59251;51.326;12.370;2024-02-21T00:54:22;14.77;;;2.80;;
71435;SDS011;59251;51.326;12.370;2024-02-21T00:56:49;13.60;;;2.58;;
71435;SDS011;59251;51.326;12.370;2024-02-21T00:59:16;13.98;;;2.50;;
71435;SDS011;59251;51.326;12.370;2024-02-21T01:01:43;13.17;;;2.80;;
71435;SDS011;59251;51.326;12.370;2024-02-21T01:04:09;12.95;;;2.53;;
71435;SDS011;59251;51.326;12.370;2024-02-21T01:06:36;14.48;;;2.08;;
71435;SDS011;59251;51.326;12.370;2024-02-21T01:09:03;11.80;;;2.65;;
71435;SDS011;59251;51.326;12.370;2024-02-21T01:11:31;11.07;;;2.60;;
71435;SDS011;59251;51.326;12.370;2024-02-21T01:13:58;10.87;;;2.40;;
71435;SDS011;59251;51.326;12.370;2024-02-21T01:16:25;10.60;;;2.10;;
71435;SDS011;59251;51.326;12.370;2024-02-21T01:18:52;12.88;;;2.30;;
71435;SDS011;59251;51.326;12.370;2024-02-21T01:21:19;13.93;;;2.40;;
71435;SDS011;59251;51.326;12.370;2024-02-21T01:23:45;10.73;;;2.42;;
71435;SDS011;59251;51.326;12.370;2024-02-21T01:26:12;14.63;;;2.40;;
71435;SDS011;59251;51.326;12.370;2024-02-21T01:28:42;12.90;;;2.60;;
71435;SDS011;59251;51.326;12.370;2024-02-21T01:31:08;10.93;;;2.67;;
71435;SDS011;59251;51.326;12.370;2024-02-21T01:33:35;11.25;;;2.25;;
71435;SDS011;59251;51.326;12.370;2024-02-21T01:36:04;14.00;;;3.25;;
71435;SDS011;59251;51.326;12.370;2024-02-21T01:38:31;8.83;;;2.40;;
71435;SDS011;59251;51.326;12.370;2024-02-21T01:40:58;10.65;;;2.47;;
71435;SDS011;59251;51.326;12.370;2024-02-21T01:43:25;17.05;;;2.55;;
71435;SDS011;59251;51.326;12.370;2024-02-21T01:45:54;11.50;;;2.20;;
71435;SDS011;59251;51.326;12.370;2024-02-21T01:48:22;11.10;;;2.30;;
71435;SDS011;59251;51.326;12.370;2024-02-21T01:50:49;13.23;;;2.57;;
71435;SDS011;59251;51.326;12.370;2024-02-21T01:53:18;12.73;;;2.28;;
71435;SDS011;59251;51.326;12.370;2024-02-21T01:55:47;12.98;;;2.35;;
71435;SDS011;59251;51.326;12.370;2024-02-21T01:58:14;15.27;;;2.95;;
71435;SDS011;59251;51.326;12.370;2024-02-21T02:00:42;16.95;;;2.92;;
71435;SDS011;59251;51.326;12.370;2024-02-21T02:03:12;12.30;;;2.27;;
71435;SDS011;59251;51.326;12.370;2024-02-21T02:05:42;14.82;;;2.85;;
71435;SDS011;59251;51.326;12.370;2024-02-21T02:08:10;10.80;;;2.60;;
71435;SDS011;59251;51.326;12.370;2024-02-21T02:10:37;12.27;;;2.33;;
71435;SDS011;59251;51.326;12.370;2024-02-21T02:13:05;13.20;;;2.08;;
71435;SDS011;59251;51.326;12.370;2024-02-21T02:15:39;10.27;;;2.13;;
71435;SDS011;59251;51.326;12.370;2024-02-21T02:18:06;13.82;;;2.20;;
71435;SDS011;59251;51.326;12.370;2024-02-21T02:20:35;10.65;;;2.00;;
71435;SDS011;59251;51.326;12.370;2024-02-21T02:23:03;9.85;;;2.15;;
71435;SDS011;59251;51.326;12.370;2024-02-21T02:25:36;10.98;;;2.30;;
71435;SDS011;59251;51.326;12.370;2024-02-21T02:28:03;15.20;;;2.93;;
71435;SDS011;59251;51.326;12.370;2024-02-21T02:30:31;10.48;;;2.38;;
71435;SDS011;59251;51.326;12.370;2024-02-21T02:32:59;11.35;;;2.03;;
71435;SDS011;59251;51.326;12.370;2024-02-21T02:35:25;11.48;;;2.42;;
71435;SDS011;59251;51.326;12.370;2024-02-21T02:37:52;14.77;;;2.90;;
71435;SDS011;59251;51.326;12.370;2024-02-21T02:40:19;10.20;;;2.20;;
71435;SDS011;59251;51.326;12.370;2024-02-21T02:42:47;8.07;;;2.00;;
71435;SDS011;59251;51.326;12.370;2024-02-21T02:45:15;14.15;;;2.60;;
71435;SDS011;59251;51.326;12.370;2024-02-21T02:47:41;12.82;;;2.13;;
71435;SDS011;59251;51.326;12.370;2024-02-21T02:50:09;11.52;;;2.47;;
71435;SDS011;59251;51.326;12.370;2024-02-21T02:52:36;11.87;;;2.70;;
71435;SDS011;59251;51.326;12.370;2024-02-21T02:55:03;15.10;;;2.40;;
71435;SDS011;59251;51.326;12.370;2024-02-21T02:57:31;13.02;;;3.17;;
71435;SDS011;59251;51.326;12.370;2024-02-21T02:59:59;14.60;;;2.55;;
71435;SDS011;59251;51.326;12.370;2024-02-21T03:02:25;14.57;;;3.13;;
71435;SDS011;59251;51.326;12.370;2024-02-21T03:04:52;13.70;;;2.47;;
71435;SDS011;59251;51.326;12.370;2024-02-21T03:07:19;12.82;;;2.70;;
71435;SDS011;59251;51.326;12.370;2024-02-21T03:09:46;9.82;;;2.58;;
71435;SDS011;59251;51.326;12.370;2024-02-21T03:12:13;13.30;;;2.85;;
71435;SDS011;59251;51.326;12.370;2024-02-21T03:14:44;11.63;;;2.20;;
71435;SDS011;59251;51.326;12.370;2024-02-21T03:17:12;11.83;;;2.30;;
71435;SDS011;59251;51.326;12.370;2024-02-21T03:19:39;14.63;;;2.95;;
71435;SDS011;59251;51.326;12.370;2024-02-21T03:22:05;11.05;;;2.97;;
71435;SDS011;59251;51.326;12.370;2024-02-21T03:24:33;13.57;;;2.40;;
71435;SDS011;59251;51.326;12.370;2024-02-21T03:27:03;9.93;;;2.42;;
71435;SDS011;59251;51.326;12.370;2024-02-21T03:29:29;8.87;;;2.03;;
71435;SDS011;59251;51.326;12.370;2024-02-21T03:31:56;15.20;;;3.20;;
71435;SDS011;59251;51.326;12.370;2024-02-21T03:34:24;14.15;;;2.50;;
71435;SDS011;59251;51.326;12.370;2024-02-21T03:36:51;11.38;;;2.53;;
71435;SDS011;59251;51.326;12.370;2024-02-21T03:39:18;12.25;;;2.30;;
71435;SDS011;59251;51.326;12.370;2024-02-21T03:41:45;8.60;;;1.53;;
71435;SDS011;59251;51.326;12.370;2024-02-21T03:44:11;11.73;;;2.70;;
71435;SDS011;59251;51.326;12.370;2024-02-21T03:46:38;11.18;;;2.25;;
71435;SDS011;59251;51.326;12.370;2024-02-21T03:49:05;13.93;;;2.60;;
71435;SDS011;59251;51.326;12.370;2024-02-21T03:51:33;12.70;;;2.08;;
71435;SDS011;59251;51.326;12.370;2024-02-21T03:54:00;13.03;;;2.63;;
71435;SDS011;59251;51.326;12.370;2024-02-21T03:56:27;16.42;;;3.05;;
71435;SDS011;59251;51.326;12.370;2024-02-21T03:58:53;10.60;;;2.10;;
71435;SDS011;59251;51.326;12.370;2024-02-21T04:01:20;12.10;;;2.90;;
71435;SDS011;59251;51.326;12.370;2024-02-21T04:03:47;10.98;;;2.20;;
71435;SDS011;59251;51.326;12.370;2024-02-21T04:06:14;10.50;;;2.20;;
71435;SDS011;59251;51.326;12.370;2024-02-21T04:08:42;9.82;;;2.03;;
71435;SDS011;59251;51.326;12.370;2024-02-21T04:11:08;14.32;;;2.13;;
71435;SDS011;59251;51.326;12.370;2024-02-21T04:13:35;13.13;;;2.22;;
71435;SDS011;59251;51.326;12.370;2024-02-21T04:16:02;12.20;;;2.10;;
71435;SDS011;59251;51.326;12.370;2024-02-21T04:18:31;9.50;;;1.97;;
71435;SDS011;59251;51.326;12.370;2024-02-21T04:20:58;8.65;;;1.92;;
71435;SDS011;59251;51.326;12.370;2024-02-21T04:23:24;12.55;;;2.40;;
71435;SDS011;59251;51.326;12.370;2024-02-21T04:25:53;13.52;;;2.50;;
71435;SDS011;59251;51.326;12.370;2024-02-21T04:28:19;11.20;;;2.40;;
71435;SDS011;59251;51.326;12.370;2024-02-21T04:30:46;11.50;;;2.30;;
71435;SDS011;59251;51.326;12.370;2024-02-21T04:33:13;14.80;;;2.80;;
71435;SDS011;59251;51.326;12.370;2024-02-21T04:35:39;11.55;;;2.55;;
71435;SDS011;59251;51.326;12.370;2024-02-21T04:38:06;8.02;;;1.88;;
71435;SDS011;59251;51.326;12.370;2024-02-21T04:40:33;13.38;;;2.97;;
71435;SDS011;59251;51.326;12.370;2024-02-21T04:43:01;9.30;;;2.17;;
71435;SDS011;59251;51.326;12.370;2024-02-21T04:45:27;10.23;;;2.30;;
71435;SDS011;59251;51.326;12.370;2024-02-21T04:47:54;9.38;;;2.20;;
71435;SDS011;59251;51.326;12.370;2024-02-21T04:50:21;10.45;;;2.78;;
71435;SDS011;59251;51.326;12.370;2024-02-21T04:52:48;15.88;;;3.03;;
71435;SDS011;59251;51.326;12.370;2024-02-21T04:55:15;16.23;;;2.87;;
71435;SDS011;59251;51.326;12.370;2024-02-21T04:57:42;16.83;;;2.50;;
71435;SDS011;59251;51.326;12.370;2024-02-21T05:00:10;10.90;;;2.70;;
71435;SDS011;59251;51.326;12.370;2024-02-21T05:02:38;14.45;;;3.22;;
71435;SDS011;59251;51.326;12.370;2024-02-21T05:05:04;8.05;;;2.63;;
71435;SDS011;59251;51.326;12.370;2024-02-21T05:07:31;10.80;;;2.50;;
71435;SDS011;59251;51.326;12.370;2024-02-21T05:09:58;11.55;;;3.08;;
71435;SDS011;59251;51.326;12.370;2024-02-21T05:12:25;11.00;;;2.70;;
71435;SDS011;59251;51.326;12.370;2024-02-21T05:14:52;10.95;;;2.80;;
71435;SDS011;59251;51.326;12.370;2024-02-21T05:17:20;11.32;;;3.03;;
71435;SDS011;59251;51.326;12.370;2024-02-21T05:19:46;10.40;;;2.60;;
71435;SDS011;59251;51.326;12.370;2024-02-21T05:22:13;10.85;;;2.83;;
71435;SDS011;59251;51.326;12.370;2024-02-21T05:24:40;13.30;;;3.10;;
71435;SDS011;59251;51.326;12.370;2024-02-21T05:27:06;13.93;;;3.03;;
71435;SDS011;59251;51.326;12.370;2024-02-21T05:29:33;12.07;;;2.80;;
71435;SDS011;59251;51.326;12.370;2024-02-21T05:32:00;10.63;;;2.53;;
71435;SDS011;59251;51.326;12.370;2024-02-21T05:34:29;12.95;;;2.85;;
71435;SDS011;59251;51.326;12.370;2024-02-21T05:36:55;8.98;;;2.70;;
71435;SDS011;59251;51.326;12.370;2024-02-21T05:39:22;10.68;;;2.47;;
71435;SDS011;59251;51.326;12.370;2024-02-21T05:41:49;16.40;;;3.60;;
71435;SDS011;59251;51.326;12.370;2024-02-21T05:44:16;13.87;;;2.63;;
71435;SDS011;59251;51.326;12.370;2024-02-21T05:46:43;11.13;;;2.63;;
71435;SDS011;59251;51.326;12.370;2024-02-21T05:49:10;12.45;;;2.60;;
71435;SDS011;59251;51.326;12.370;2024-02-21T05:51:38;11.13;;;2.80;;
71435;SDS011;59251;51.326;12.370;2024-02-21T05:54:05;13.57;;;3.00;;
71435;SDS011;59251;51.326;12.370;2024-02-21T05:56:32;11.87;;;2.77;;
71435;SDS011;59251;51.326;12.370;2024-02-21T05:58:59;12.90;;;3.20;;
71435;SDS011;59251;51.326;12.370;2024-02-21T06:01:26;17.08;;;3.47;;
71435;SDS011;59251;51.326;12.370;2024-02-21T06:03:53;11.02;;;2.70;;
71435;SDS011;59251;51.326;12.370;2024-02-21T06:06:19;9.13;;;1.98;;
71435;SDS011;59251;51.326;12.370;2024-02-21T06:08:48;10.87;;;2.60;;
71435;SDS011;59251;51.326;12.370;2024-02-21T06:11:15;11.25;;;2.95;;
71435;SDS011;59251;51.326;12.370;2024-02-21T06:13:41;12.25;;;2.63;;
71435;SDS011;59251;51.326;12.370;2024-02-21T06:16:08;11.50;;;2.50;;
71435;SDS011;59251;51.326;12.370;2024-02-21T06:18:35;15.05;;;3.20;;
71435;SDS011;59251;51.326;12.370;2024-02-21T06:21:03;10.60;;;2.50;;
71435;SDS011;59251;51.326;12.370;2024-02-21T06:23:30;13.07;;;2.80;;
71435;SDS011;59251;51.326;12.370;2024-02-21T06:25:58;11.68;;;2.90;;
71435;SDS011;59251;51.326;12.370;2024-02-21T06:28:25;14.07;;;2.97;;
71435;SDS011;59251;51.326;12.370;2024-02-21T06:30:52;13.60;;;2.83;;
71435;SDS011;59251;51.326;12.370;2024-02-21T06:33:18;11.30;;;3.00;;
71435;SDS011;59251;51.326;12.370;2024-02-21T06:35:50;13.95;;;3.40;;
71435;SDS011;59251;51.326;12.370;2024-02-21T06:38:19;12.93;;;2.80;;
71435;SDS011;59251;51.326;12.370;2024-02-21T06:40:45;16.52;;;3.83;;
71435;SDS011;59251;51.326;12.370;2024-02-21T06:43:17;10.73;;;3.20;;
71435;SDS011;59251;51.326;12.370;2024-02-21T06:45:45;14.63;;;3.10;;
71435;SDS011;59251;51.326;12.370;2024-02-21T06:48:16;17.05;;;3.13;;
71435;SDS011;59251;51.326;12.370;2024-02-21T06:50:43;11.25;;;3.00;;
71435;SDS011;59251;51.326;12.370;2024-02-21T06:53:10;12.05;;;3.40;;
71435;SDS011;59251;51.326;12.370;2024-02-21T06:55:37;9.93;;;2.58;;
71435;SDS011;59251;51.326;12.370;2024-02-21T06:58:03;11.23;;;2.80;;
71435;SDS011;59251;51.326;12.370;2024-02-21T07:00:32;10.05;;;3.33;;
71435;SDS011;59251;51.326;12.370;2024-02-21T07:02:58;11.73;;;2.85;;
71435;SDS011;59251;51.326;12.370;2024-02-21T07:05:25;12.40;;;2.75;;
71435;SDS011;59251;51.326;12.370;2024-02-21T07:07:52;11.80;;;2.80;;
71435;SDS011;59251;51.326;12.370;2024-02-21T07:10:18;13.73;;;2.90;;
71435;SDS011;59251;51.326;12.370;2024-02-21T07:12:45;10.52;;;2.80;;
71435;SDS011;59251;51.326;12.370;2024-02-21T07:15:12;11.80;;;3.00;;
71435;SDS011;59251;51.326;12.370;2024-02-21T07:17:40;14.43;;;3.53;;
71435;SDS011;59251;51.326;12.370;2024-02-21T07:20:07;11.93;;;2.97;;
71435;SDS011;59251;51.326;12.370;2024-02-21T07:22:34;10.43;;;2.80;;
71435;SDS011;59251;51.326;12.370;2024-02-21T07:25:01;10.95;;;2.85;;
71435;SDS011;59251;51.326;12.370;2024-02-21T07:27:28;15.82;;;3.13;;
71435;SDS011;59251;51.326;12.370;2024-02-21T07:29:56;11.65;;;3.60;;
71435;SDS011;59251;51.326;12.370;2024-02-21T07:32:23;12.00;;;2.70;;
71435;SDS011;59251;51.326;12.370;2024-02-21T07:34:51;11.17;;;3.03;;
71435;SDS011;59251;51.326;12.370;2024-02-21T07:37:18;11.95;;;3.38;;
71435;SDS011;59251;51.326;12.370;2024-02-21T07:39:45;12.00;;;3.80;;
71435;SDS011;59251;51.326;12.370;2024-02-21T07:42:11;11.93;;;3.15;;
71435;SDS011;59251;51.326;12.370;2024-02-21T07:44:38;12.40;;;3.42;;
71435;SDS011;59251;51.326;12.370;2024-02-21T07:47:05;10.80;;;3.30;;
71435;SDS011;59251;51.326;12.370;2024-02-21T07:49:32;12.88;;;3.33;;
71435;SDS011;59251;51.326;12.370;2024-02-21T07:52:01;10.02;;;3.58;;
71435;SDS011;59251;51.326;12.370;2024-02-21T07:54:28;13.10;;;3.47;;
71435;SDS011;59251;51.326;12.370;2024-02-21T07:56:55;10.48;;;3.13;;
71435;SDS011;59251;51.326;12.370;2024-02-21T07:59:22;12.60;;;3.13;;
71435;SDS011;59251;51.326;12.370;2024-02-21T08:01:49;10.55;;;3.95;;
71435;SDS011;59251;51.326;12.370;2024-02-21T08:04:15;13.93;;;3.22;;
71435;SDS011;59251;51.326;12.370;2024-02-21T08:06:42;10.30;;;3.20;;
71435;SDS011;59251;51.326;12.370;2024-02-21T08:09:11;12.73;;;2.75;;
71435;SDS011;59251;51.326;12.370;2024-02-21T08:11:38;11.83;;;3.23;;
71435;SDS011;59251;51.326;12.370;2024-02-21T08:14:05;12.30;;;3.75;;
71435;SDS011;59251;51.326;12.370;2024-02-21T08:16:32;10.45;;;2.95;;
71435;SDS011;59251;51.326;12.370;2024-02-21T08:18:59;12.10;;;3.47;;
71435;SDS011;59251;51.326;12.370;2024-02-21T08:21:27;14.85;;;3.28;;
71435;SDS011;59251;51.326;12.370;2024-02-21T08:23:54;15.10;;;2.50;;
71435;SDS011;59251;51.326;12.370;2024-02-21T08:26:22;11.98;;;3.15;;
71435;SDS011;59251;51.326;12.370;2024-02-21T08:28:52;12.90;;;2.88;;
71435;SDS011;59251;51.326;12.370;2024-02-21T08:31:20;13.43;;;3.30;;
71435;SDS011;59251;51.326;12.370;2024-02-21T08:33:48;13.23;;;3.50;;
71435;SDS011;59251;51.326;12.370;2024-02-21T08:36:17;16.70;;;3.63;;
71435;SDS011;59251;51.326;12.370;2024-02-21T08:38:44;14.23;;;4.15;;
71435;SDS011;59251;51.326;12.370;2024-02-21T08:41:11;10.25;;;3.13;;
71435;SDS011;59251;51.326;12.370;2024-02-21T08:43:39;13.75;;;3.28;;
71435;SDS011;59251;51.326;12.370;2024-02-21T08:46:06;13.77;;;3.33;;
71435;SDS011;59251;51.326;12.370;2024-02-21T08:48:33;11.17;;;3.10;;
71435;SDS011;59251;51.326;12.370;2024-02-21T08:50:59;13.90;;;3.83;;
71435;SDS011;59251;51.326;12.370;2024-02-21T08:53:27;11.77;;;3.17;;
71435;SDS011;59251;51.326;12.370;2024-02-21T08:55:53;13.68;;;3.10;;
71435;SDS011;59251;51.326;12.370;2024-02-21T08:58:20;11.38;;;3.00;;
71435;SDS011;59251;51.326;12.370;2024-02-21T09:00:50;12.13;;;3.30;;
71435;SDS011;59251;51.326;12.370;2024-02-21T09:03:17;15.10;;;3.35;;
71435;SDS011;59251;51.326;12.370;2024-02-21T09:05:45;14.20;;;3.40;;
71435;SDS011;59251;51.326;12.370;2024-02-21T09:08:12;10.52;;;3.22;;
71435;SDS011;59251;51.326;12.370;2024-02-21T09:10:39;10.18;;;3.00;;
71435;SDS011;59251;51.326;12.370;2024-02-21T09:13:06;10.20;;;3.30;;
71435;SDS011;59251;51.326;12.370;2024-02-21T09:15:33;9.75;;;3.22;;
71435;SDS011;59251;51.326;12.370;2024-02-21T09:18:01;13.85;;;3.70;;
71435;SDS011;59251;51.326;12.370;2024-02-21T09:20:28;9.98;;;2.90;;
71435;SDS011;59251;51.326;12.370;2024-02-21T09:22:56;13.27;;;3.78;;
71435;SDS011;59251;51.326;12.370;2024-02-21T09:25:23;13.03;;;3.50;;
71435;SDS011;59251;51.326;12.370;2024-02-21T09:27:49;11.73;;;3.40;;
71435;SDS011;59251;51.326;12.370;2024-02-21T09:30:17;14.60;;;3.10;;
71435;SDS011;59251;51.326;12.370;2024-02-21T09:32:44;13.73;;;4.70;;
71435;SDS011;59251;51.326;12.370;2024-02-21T09:35:12;11.23;;;3.45;;
71435;SDS011;59251;51.326;12.370;2024-02-21T09:37:39;13.63;;;3.37;;
71435;SDS011;59251;51.326;12.370;2024-02-21T09:40:06;12.82;;;3.40;;
71435;SDS011;59251;51.326;12.370;2024-02-21T09:42:36;14.48;;;2.88;;
71435;SDS011;59251;51.326;12.370;2024-02-21T09:45:05;12.88;;;3.35;;
71435;SDS011;59251;51.326;12.370;2024-02-21T09:47:39;12.90;;;3.75;;
71435;SDS011;59251;51.326;12.370;2024-02-21T09:50:26;12.00;;;3.47;;
71435;SDS011;59251;51.326;12.370;2024-02-21T09:52:55;18.08;;;3.97;;
71435;SDS011;59251;51.326;12.370;2024-02-21T09:55:22;10.63;;;3.10;;
71435;SDS011;59251;51.326;12.370;2024-02-21T09:57:49;11.90;;;3.53;;
71435;SDS011;59251;51.326;12.370;2024-02-21T10:00:17;11.35;;;3.20;;
71435;SDS011;59251;51.326;12.370;2024-02-21T10:02:47;15.47;;;3.80;;
71435;SDS011;59251;51.326;12.370;2024-02-21T10:05:14;9.18;;;2.53;;
71435;SDS011;59251;51.326;12.370;2024-02-21T10:07:44;12.70;;;2.88;;
71435;SDS011;59251;51.326;12.370;2024-02-21T10:10:10;11.10;;;2.90;;
71435;SDS011;59251;51.326;12.370;2024-02-21T10:12:47;13.40;;;3.17;;
71435;SDS011;59251;51.326;12.370;2024-02-21T10:15:19;12.63;;;3.00;;
71435;SDS011;59251;51.326;12.370;2024-02-21T10:17:47;10.93;;;2.55;;
71435;SDS011;59251;51.326;12.370;2024-02-21T10:20:14;12.68;;;3.25;;
71435;SDS011;59251;51.326;12.370;2024-02-21T10:22:41;14.65;;;2.90;;
71435;SDS011;59251;51.326;12.370;2024-02-21T10:25:10;12.18;;;3.08;;
71435;SDS011;59251;51.326;12.370;2024-02-21T10:27:37;12.23;;;2.50;;
71435;SDS011;59251;51.326;12.370;2024-02-21T10:30:04;11.45;;;2.67;;
71435;SDS011;59251;51.326;12.370;2024-02-21T10:32:32;10.63;;;3.10;;
71435;SDS011;59251;51.326;12.370;2024-02-21T10:35:02;14.48;;;3.63;;
71435;SDS011;59251;51.326;12.370;2024-02-21T10:37:30;12.10;;;2.70;;
71435;SDS011;59251;51.326;12.370;2024-02-21T10:39:58;10.17;;;2.40;;
71435;SDS011;59251;51.326;12.370;2024-02-21T10:42:26;14.65;;;2.88;;
71435;SDS011;59251;51.326;12.370;2024-02-21T10:44:59;9.52;;;2.20;;
71435;SDS011;59251;51.326;12.370;2024-02-21T10:47:29;12.10;;;3.42;;
71435;SDS011;59251;51.326;12.370;2024-02-21T10:50:01;8.07;;;2.78;;
71435;SDS011;59251;51.326;12.370;2024-02-21T10:52:32;6.47;;;1.80;;
71435;SDS011;59251;51.326;12.370;2024-02-21T10:55:11;10.80;;;2.65;;
71435;SDS011;59251;51.326;12.370;2024-02-21T10:57:46;9.88;;;1.75;;
71435;SDS011;59251;51.326;12.370;2024-02-21T11:00:14;9.30;;;2.13;;
71435;SDS011;59251;51.326;12.370;2024-02-21T11:02:44;13.02;;;2.10;;
71435;SDS011;59251;51.326;12.370;2024-02-21T11:05:11;9.60;;;2.40;;
71435;SDS011;59251;51.326;12.370;2024-02-21T11:07:38;10.63;;;2.38;;
71435;SDS011;59251;51.326;12.370;2024-02-21T11:10:20;10.73;;;2.30;;
71435;SDS011;59251;51.326;12.370;2024-02-21T11:12:52;10.05;;;2.00;;
71435;SDS011;59251;51.326;12.370;2024-02-21T11:15:19;7.07;;;2.00;;
71435;SDS011;59251;51.326;12.370;2024-02-21T11:17:55;11.47;;;2.63;;
71435;SDS011;59251;51.326;12.370;2024-02-21T11:20:31;12.68;;;2.78;;
71435;SDS011;59251;51.326;12.370;2024-02-21T11:22:59;10.73;;;2.80;;
71435;SDS011;59251;51.326;12.370;2024-02-21T11:25:27;13.57;;;2.90;;
71435;SDS011;59251;51.326;12.370;2024-02-21T11:28:01;10.98;;;3.10;;
71435;SDS011;59251;51.326;12.370;2024-02-21T11:30:29;8.63;;;2.00;;
71435;SDS011;59251;51.326;12.370;2024-02-21T11:33:01;9.07;;;2.40;;
71435;SDS011;59251;51.326;12.370;2024-02-21T11:35:32;9.20;;;2.30;;
71435;SDS011;59251;51.326;12.370;2024-02-21T11:38:09;9.02;;;2.35;;
71435;SDS011;59251;51.326;12.370;2024-02-21T11:40:41;9.95;;;2.20;;
71435;SDS011;59251;51.326;12.370;2024-02-21T11:43:09;10.37;;;2.30;;
71435;SDS011;59251;51.326;12.370;2024-02-21T11:45:36;7.35;;;2.03;;
71435;SDS011;59251;51.326;12.370;2024-02-21T11:48:05;8.38;;;2.05;;
71435;SDS011;59251;51.326;12.370;2024-02-21T11:50:33;7.68;;;1.75;;
71435;SDS011;59251;51.326;12.370;2024-02-21T11:53:00;8.05;;;1.77;;
71435;SDS011;59251;51.326;12.370;2024-02-21T11:55:27;8.80;;;1.90;;
71435;SDS011;59251;51.326;12.370;2024-02-21T11:57:55;5.78;;;1.20;;
71435;SDS011;59251;51.326;12.370;2024-02-21T12:00:23;7.80;;;1.42;;
71435;SDS011;59251;51.326;12.370;2024-02-21T12:02:52;7.18;;;1.35;;
71435;SDS011;59251;51.326;12.370;2024-02-21T12:05:20;7.18;;;1.25;;
71435;SDS011;59251;51.326;12.370;2024-02-21T12:07:47;5.20;;;1.10;;
71435;SDS011;59251;51.326;12.370;2024-02-21T12:10:14;6.85;;;1.15;;
71435;SDS011;59251;51.326;12.370;2024-02-21T12:12:41;5.25;;;1.33;;
71435;SDS011;59251;51.326;12.370;2024-02-21T12:15:09;7.20;;;1.25;;
71435;SDS011;59251;51.326;12.370;2024-02-21T12:17:36;7.43;;;1.58;;
71435;SDS011;59251;51.326;12.370;2024-02-21T12:20:03;6.43;;;1.07;;
71435;SDS011;59251;51.326;12.370;2024-02-21T12:22:35;6.32;;;1.73;;
71435;SDS011;59251;51.326;12.370;2024-02-21T12:25:02;7.10;;;1.52;;
71435;SDS011;59251;51.326;12.370;2024-02-21T12:27:33;6.32;;;1.50;;
71435;SDS011;59251;51.326;12.370;2024-02-21T12:29:59;8.20;;;1.67;;
71435;SDS011;59251;51.326;12.370;2024-02-21T12:32:27;6.23;;;1.27;;
71435;SDS011;59251;51.326;12.370;2024-02-21T12:34:54;7.47;;;1.55;;
71435;SDS011;59251;51.326;12.370;2024-02-21T12:37:21;8.82;;;2.13;;
71435;SDS011;59251;51.326;12.370;2024-02-21T12:39:50;6.43;;;1.77;;
71435;SDS011;59251;51.326;12.370;2024-02-21T12:42:17;10.75;;;2.22;;
71435;SDS011;59251;51.326;12.370;2024-02-21T12:44:43;8.23;;;1.70;;
71435;SDS011;59251;51.326;12.370;2024-02-21T12:47:11;7.30;;;1.60;;
71435;SDS011;59251;51.326;12.370;2024-02-21T12:49:39;7.22;;;1.52;;
71435;SDS011;59251;51.326;12.370;2024-02-21T12:52:06;9.07;;;1.90;;
71435;SDS011;59251;51.326;12.370;2024-02-21T12:54:33;9.48;;;2.08;;
71435;SDS011;59251;51.326;12.370;2024-02-21T12:57:00;9.77;;;2.00;;
71435;SDS011;59251;51.326;12.370;2024-02-21T12:59:28;6.65;;;2.00;;
71435;SDS011;59251;51.326;12.370;2024-02-21T13:01:54;7.50;;;2.20;;
71435;SDS011;59251;51.326;12.370;2024-02-21T13:04:21;7.82;;;2.00;;
71435;SDS011;59251;51.326;12.370;2024-02-21T13:06:50;7.03;;;2.13;;
71435;SDS011;59251;51.326;12.370;2024-02-21T13:09:17;7.83;;;1.83;;
71435;SDS011;59251;51.326;12.370;2024-02-21T13:11:44;8.02;;;2.28;;
71435;SDS011;59251;51.326;12.370;2024-02-21T13:14:11;7.22;;;1.98;;
71435;SDS011;59251;51.326;12.370;2024-02-21T13:16:38;7.72;;;1.58;;
71435;SDS011;59251;51.326;12.370;2024-02-21T13:19:05;9.70;;;2.45;;
71435;SDS011;59251;51.326;12.370;2024-02-21T13:21:33;7.13;;;1.70;;
71435;SDS011;59251;51.326;12.370;2024-02-21T13:24:01;6.68;;;1.55;;
71435;SDS011;59251;51.326;12.370;2024-02-21T13:26:28;8.27;;;1.70;;
71435;SDS011;59251;51.326;12.370;2024-02-21T13:28:55;8.10;;;1.88;;
71435;SDS011;59251;51.326;12.370;2024-02-21T13:31:22;6.38;;;1.55;;
71435;SDS011;59251;51.326;12.370;2024-02-21T13:33:50;8.80;;;1.67;;
71435;SDS011;59251;51.326;12.370;2024-02-21T13:36:17;8.10;;;1.52;;
71435;SDS011;59251;51.326;12.370;2024-02-21T13:38:44;7.60;;;2.03;;
71435;SDS011;59251;51.326;12.370;2024-02-21T13:41:12;5.93;;;1.33;;
71435;SDS011;59251;51.326;12.370;2024-02-21T13:43:39;6.65;;;1.40;;
71435;SDS011;59251;51.326;12.370;2024-02-21T13:46:06;7.63;;;1.70;;
71435;SDS011;59251;51.326;12.370;2024-02-21T13:48:35;9.30;;;2.13;;
71435;SDS011;59251;51.326;12.370;2024-02-21T13:51:02;6.43;;;1.70;;
71435;SDS011;59251;51.326;12.370;2024-02-21T13:53:29;7.88;;;1.90;;
71435;SDS011;59251;51.326;12.370;2024-02-21T13:55:55;6.43;;;1.50;;
71435;SDS011;59251;51.326;12.370;2024-02-21T13:58:24;8.70;;;1.80;;
71435;SDS011;59251;51.326;12.370;2024-02-21T14:00:51;8.02;;;1.63;;
71435;SDS011;59251;51.326;12.370;2024-02-21T14:03:18;7.70;;;1.42;;
71435;SDS011;59251;51.326;12.370;2024-02-21T14:05:45;8.05;;;1.63;;
71435;SDS011;59251;51.326;12.370;2024-02-21T14:08:13;7.32;;;1.70;;
71435;SDS011;59251;51.326;12.370;2024-02-21T14:10:40;6.80;;;1.77;;
71435;SDS011;59251;51.326;12.370;2024-02-21T14:13:07;6.00;;;1.58;;
71435;SDS011;59251;51.326;12.370;2024-02-21T14:15:35;7.40;;;1.60;;
71435;SDS011;59251;51.326;12.370;2024-02-21T14:18:06;6.75;;;1.70;;
71435;SDS011;59251;51.326;12.370;2024-02-21T14:20:34;7.05;;;1.70;;
71435;SDS011;59251;51.326;12.370;2024-02-21T14:23:01;6.23;;;1.60;;
71435;SDS011;59251;51.326;12.370;2024-02-21T14:25:29;6.75;;;1.48;;
71435;SDS011;59251;51.326;12.370;2024-02-21T14:27:56;7.40;;;1.52;;